sensor_id;sensor_type;location;lat;lon;timestamp;pressure;altitude;pressure_sealevel;temperature;humidity
56420;BME280;42323;52.170;7.538;2023-02-17T00:00:37;101460.13;;;8.66;100.00
56420;BME280;42323;52.170;7.538;2023-02-17T00:03:04;101449.94;;;8.63;100.00
56420;BME280;42323;52.170;7.538;2023-02-17T00:05:30;101456.91;;;8.72;100.00
56420;BME280;42323;52.170;7.538;2023-02-17T00:07:57;101455.56;;;8.68;100.00
56420;BME280;42323;52.170;7.538;2023-02-17T00:10:24;101457.06;;;8.70;100.00
56420;BME280;42323;52.170;7.538;2023-02-17T00:12:50;101452.94;;;8.68;100.00
56420;BME280;42323;52.170;7.538;2023-02-17T00:15:16;101448.72;;;8.57;100.00
56420;BME280;42323;52.170;7.538;2023-02-17T00:17:43;101445.97;;;8.68;100.00
56420;BME280;42323;52.170;7.538;2023-02-17T00:20:10;101421.78;;;8.57;100.00
56420;BME280;42323;52.170;7.538;2023-02-17T00:22:36;101445.53;;;8.73;100.00
56420;BME280;42323;52.170;7.538;2023-02-17T00:25:03;101436.59;;;8.66;100.00
56420;BME280;42323;52.170;7.538;2023-02-17T00:27:29;101445.53;;;8.73;100.00
56420;BME280;42323;52.170;7.538;2023-02-17T00:29:56;101457.63;;;8.74;100.00
56420;BME280;42323;52.170;7.538;2023-02-17T00:32:22;101442.66;;;8.66;100.00
56420;BME280;42323;52.170;7.538;2023-02-17T00:34:51;101451.56;;;8.73;100.00
56420;BME280;42323;52.170;7.538;2023-02-17T00:37:17;101434.81;;;8.66;100.00
56420;BME280;42323;52.170;7.538;2023-02-17T00:39:44;101448.13;;;8.73;100.00
56420;BME280;42323;52.170;7.538;2023-02-17T00:42:10;101443.56;;;8.75;100.00
56420;BME280;42323;52.170;7.538;2023-02-17T00:44:37;101449.50;;;8.77;100.00
56420;BME280;42323;52.170;7.538;2023-02-17T00:47:03;101443.16;;;8.79;100.00
56420;BME280;42323;52.170;7.538;2023-02-17T00:49:30;101448.31;;;8.89;100.00
56420;BME280;42323;52.170;7.538;2023-02-17T00:52:00;101442.28;;;8.89;100.00
56420;BME280;42323;52.170;7.538;2023-02-17T00:54:27;101441.84;;;8.93;100.00
56420;BME280;42323;52.170;7.538;2023-02-17T00:56:54;101437.47;;;8.94;100.00
56420;BME280;42323;52.170;7.538;2023-02-17T00:59:21;101429.19;;;8.98;100.00
56420;BME280;42323;52.170;7.538;2023-02-17T01:01:47;101425.59;;;8.99;100.00
56420;BME280;42323;52.170;7.538;2023-02-17T01:04:14;101435.13;;;8.91;100.00
56420;BME280;42323;52.170;7.538;2023-02-17T01:06:41;101436.53;;;8.85;100.00
56420;BME280;42323;52.170;7.538;2023-02-17T01:09:10;101427.00;;;8.94;100.00
56420;BME280;42323;52.170;7.538;2023-02-17T01:11:37;101439.66;;;8.89;100.00
56420;BME280;42323;52.170;7.538;2023-02-17T01:14:05;101436.91;;;8.90;100.00
56420;BME280;42323;52.170;7.538;2023-02-17T01:16:35;101436.22;;;8.88;100.00
56420;BME280;42323;52.170;7.538;2023-02-17T01:19:03;101431.53;;;8.92;100.00
56420;BME280;42323;52.170;7.538;2023-02-17T01:21:31;101427.94;;;8.93;100.00
56420;BME280;42323;52.170;7.538;2023-02-17T01:23:59;101423.16;;;8.88;100.00
56420;BME280;42323;52.170;7.538;2023-02-17T01:26:28;101419.06;;;8.86;100.00
56420;BME280;42323;52.170;7.538;2023-02-17T01:28:55;101426.47;;;8.90;100.00
56420;BME280;42323;52.170;7.538;2023-02-17T01:31:23;101427.56;;;8.88;100.00
56420;BME280;42323;52.170;7.538;2023-02-17T01:33:49;101418.09;;;8.87;100.00
56420;BME280;42323;52.170;7.538;2023-02-17T01:36:17;101424.78;;;8.89;100.00
56420;BME280;42323;52.170;7.538;2023-02-17T01:38:44;101418.91;;;8.87;100.00
56420;BME280;42323;52.170;7.538;2023-02-17T01:41:15;101420.25;;;8.91;100.00
56420;BME280;42323;52.170;7.538;2023-02-17T01:44:01;101410.69;;;8.82;100.00
56420;BME280;42323;52.170;7.538;2023-02-17T01:46:31;101417.94;;;8.88;100.00
56420;BME280;42323;52.170;7.538;2023-02-17T01:48:58;101407.91;;;8.84;100.00
56420;BME280;42323;52.170;7.538;2023-02-17T01:51:28;101405.84;;;8.87;100.00
56420;BME280;42323;52.170;7.538;2023-02-17T01:54:12;101408.31;;;8.89;100.00
56420;BME280;42323;52.170;7.538;2023-02-17T01:56:42;101417.94;;;8.88;100.00
56420;BME280;42323;52.170;7.538;2023-02-17T01:59:15;101389.34;;;8.87;100.00
56420;BME280;42323;52.170;7.538;2023-02-17T02:01:42;101374.31;;;8.89;100.00
56420;BME280;42323;52.170;7.538;2023-02-17T02:04:09;101375.16;;;8.89;100.00
56420;BME280;42323;52.170;7.538;2023-02-17T02:06:39;101361.13;;;8.90;100.00
56420;BME280;42323;52.170;7.538;2023-02-17T02:09:11;101345.44;;;8.90;100.00
56420;BME280;42323;52.170;7.538;2023-02-17T02:11:40;101344.63;;;8.90;100.00
56420;BME280;42323;52.170;7.538;2023-02-17T02:14:07;101345.13;;;8.93;100.00
56420;BME280;42323;52.170;7.538;2023-02-17T02:16:42;101342.97;;;8.89;100.00
56420;BME280;42323;52.170;7.538;2023-02-17T02:24:46;101342.16;;;8.88;100.00
56420;BME280;42323;52.170;7.538;2023-02-17T02:35:14;101366.19;;;8.92;100.00
56420;BME280;42323;52.170;7.538;2023-02-17T02:38:02;101360.44;;;8.88;100.00
56420;BME280;42323;52.170;7.538;2023-02-17T02:40:35;101356.72;;;8.91;100.00
56420;BME280;42323;52.170;7.538;2023-02-17T02:43:05;101354.66;;;8.94;100.00
56420;BME280;42323;52.170;7.538;2023-02-17T02:45:31;101350.06;;;8.96;100.00
56420;BME280;42323;52.170;7.538;2023-02-17T02:48:00;101337.31;;;8.93;100.00
56420;BME280;42323;52.170;7.538;2023-02-17T02:53:36;101335.09;;;8.98;100.00
56420;BME280;42323;52.170;7.538;2023-02-17T02:56:14;101325.59;;;8.97;100.00
56420;BME280;42323;52.170;7.538;2023-02-17T03:06:52;101330.31;;;9.12;100.00
56420;BME280;42323;52.170;7.538;2023-02-17T03:09:25;101312.38;;;9.17;100.00
56420;BME280;42323;52.170;7.538;2023-02-17T03:11:54;101320.34;;;9.15;100.00
56420;BME280;42323;52.170;7.538;2023-02-17T03:14:22;101329.19;;;9.14;100.00
56420;BME280;42323;52.170;7.538;2023-02-17T03:16:50;101320.06;;;9.18;100.00
56420;BME280;42323;52.170;7.538;2023-02-17T03:19:18;101323.22;;;9.22;100.00
56420;BME280;42323;52.170;7.538;2023-02-17T03:22:08;101311.25;;;9.19;100.00
56420;BME280;42323;52.170;7.538;2023-02-17T03:24:37;101313.72;;;9.21;100.00
56420;BME280;42323;52.170;7.538;2023-02-17T03:27:03;101313.94;;;9.27;100.00
56420;BME280;42323;52.170;7.538;2023-02-17T03:29:30;101320.50;;;9.32;100.00
56420;BME280;42323;52.170;7.538;2023-02-17T03:31:56;101308.25;;;9.32;100.00
56420;BME280;42323;52.170;7.538;2023-02-17T03:34:23;101321.41;;;9.40;99.96
56420;BME280;42323;52.170;7.538;2023-02-17T03:36:49;101314.81;;;9.36;100.00
56420;BME280;42323;52.170;7.538;2023-02-17T03:39:16;101312.06;;;9.38;99.46
56420;BME280;42323;52.170;7.538;2023-02-17T03:41:42;101305.88;;;9.39;99.12
56420;BME280;42323;52.170;7.538;2023-02-17T03:44:09;101301.69;;;9.46;98.81
56420;BME280;42323;52.170;7.538;2023-02-17T03:46:38;101300.63;;;9.39;98.28
56420;BME280;42323;52.170;7.538;2023-02-17T03:49:05;101281.97;;;9.34;98.60
56420;BME280;42323;52.170;7.538;2023-02-17T03:51:32;101297.84;;;9.40;98.25
56420;BME280;42323;52.170;7.538;2023-02-17T03:53:58;101288.44;;;9.47;97.21
56420;BME280;42323;52.170;7.538;2023-02-17T03:56:25;101273.25;;;9.51;97.03
56420;BME280;42323;52.170;7.538;2023-02-17T03:58:52;101262.91;;;9.41;97.36
56420;BME280;42323;52.170;7.538;2023-02-17T04:01:18;101268.84;;;9.51;95.71
56420;BME280;42323;52.170;7.538;2023-02-17T04:03:45;101270.66;;;9.51;95.63
56420;BME280;42323;52.170;7.538;2023-02-17T04:06:12;101285.53;;;9.50;95.75
56420;BME280;42323;52.170;7.538;2023-02-17T04:08:38;101282.22;;;9.48;95.61
56420;BME280;42323;52.170;7.538;2023-02-17T04:11:07;101275.19;;;9.49;95.19
56420;BME280;42323;52.170;7.538;2023-02-17T04:13:34;101279.31;;;9.51;94.24
56420;BME280;42323;52.170;7.538;2023-02-17T04:16:01;101290.06;;;9.48;94.56
56420;BME280;42323;52.170;7.538;2023-02-17T04:18:30;101286.47;;;9.49;95.06
56420;BME280;42323;52.170;7.538;2023-02-17T04:20:57;101278.34;;;9.52;94.68
56420;BME280;42323;52.170;7.538;2023-02-17T04:23:23;101271.47;;;9.51;94.24
56420;BME280;42323;52.170;7.538;2023-02-17T04:25:50;101274.69;;;9.45;93.67
56420;BME280;42323;52.170;7.538;2023-02-17T04:28:17;101280.66;;;9.55;93.56
56420;BME280;42323;52.170;7.538;2023-02-17T04:30:46;101272.13;;;9.53;93.09
56420;BME280;42323;52.170;7.538;2023-02-17T04:33:13;101261.97;;;9.50;92.63
56420;BME280;42323;52.170;7.538;2023-02-17T04:35:39;101259.44;;;9.59;92.91
56420;BME280;42323;52.170;7.538;2023-02-17T04:38:07;101264.50;;;9.60;92.50
56420;BME280;42323;52.170;7.538;2023-02-17T04:40:33;101269.88;;;9.59;92.35
56420;BME280;42323;52.170;7.538;2023-02-17T04:43:00;101265.78;;;9.56;92.87
56420;BME280;42323;52.170;7.538;2023-02-17T04:45:26;101254.50;;;9.55;92.20
56420;BME280;42323;52.170;7.538;2023-02-17T04:47:53;101269.84;;;9.50;92.69
56420;BME280;42323;52.170;7.538;2023-02-17T04:50:20;101266.69;;;9.47;93.22
56420;BME280;42323;52.170;7.538;2023-02-17T04:52:47;101267.50;;;9.47;92.93
56420;BME280;42323;52.170;7.538;2023-02-17T04:55:13;101250.94;;;9.39;92.99
56420;BME280;42323;52.170;7.538;2023-02-17T04:57:40;101261.47;;;9.47;92.71
56420;BME280;42323;52.170;7.538;2023-02-17T05:00:07;101276.69;;;9.51;91.88
56420;BME280;42323;52.170;7.538;2023-02-17T05:02:34;101271.19;;;9.54;92.30
56420;BME280;42323;52.170;7.538;2023-02-17T05:05:00;101254.63;;;9.54;91.75
56420;BME280;42323;52.170;7.538;2023-02-17T05:07:27;101272.19;;;9.62;91.78
56420;BME280;42323;52.170;7.538;2023-02-17T05:09:53;101253.50;;;9.57;91.46
56420;BME280;42323;52.170;7.538;2023-02-17T05:12:19;101242.69;;;9.51;91.71
56420;BME280;42323;52.170;7.538;2023-02-17T05:14:46;101238.94;;;9.54;91.50
56420;BME280;42323;52.170;7.538;2023-02-17T05:17:12;101234.03;;;9.51;91.49
56420;BME280;42323;52.170;7.538;2023-02-17T05:19:39;101244.56;;;9.59;90.92
56420;BME280;42323;52.170;7.538;2023-02-17T05:22:05;101246.47;;;9.57;90.18
56420;BME280;42323;52.170;7.538;2023-02-17T05:24:32;101237.34;;;9.61;90.39
56420;BME280;42323;52.170;7.538;2023-02-17T05:26:58;101246.38;;;9.67;89.63
56420;BME280;42323;52.170;7.538;2023-02-17T05:29:25;101250.72;;;9.58;89.98
56420;BME280;42323;52.170;7.538;2023-02-17T05:31:51;101240.13;;;9.60;89.36
56420;BME280;42323;52.170;7.538;2023-02-17T05:34:17;101257.31;;;9.62;89.01
56420;BME280;42323;52.170;7.538;2023-02-17T05:36:46;101250.59;;;9.60;89.19
56420;BME280;42323;52.170;7.538;2023-02-17T05:39:12;101247.16;;;9.59;88.56
56420;BME280;42323;52.170;7.538;2023-02-17T05:41:39;101233.69;;;9.54;88.08
56420;BME280;42323;52.170;7.538;2023-02-17T05:44:11;101227.19;;;9.58;88.03
56420;BME280;42323;52.170;7.538;2023-02-17T05:46:45;101233.63;;;9.64;88.55
56420;BME280;42323;52.170;7.538;2023-02-17T05:49:12;101205.97;;;9.61;87.30
56420;BME280;42323;52.170;7.538;2023-02-17T05:51:38;101207.28;;;9.65;87.81
56420;BME280;42323;52.170;7.538;2023-02-17T05:54:05;101199.13;;;9.68;87.92
56420;BME280;42323;52.170;7.538;2023-02-17T06:15:17;101238.56;;;9.75;87.51
56420;BME280;42323;52.170;7.538;2023-02-17T06:17:44;101216.31;;;9.71;87.34
56420;BME280;42323;52.170;7.538;2023-02-17T06:20:11;101206.66;;;9.71;87.14
56420;BME280;42323;52.170;7.538;2023-02-17T06:22:38;101219.44;;;9.74;87.99
56420;BME280;42323;52.170;7.538;2023-02-17T06:25:05;101211.59;;;9.74;87.95
56420;BME280;42323;52.170;7.538;2023-02-17T06:27:31;101226.47;;;9.74;87.35
56420;BME280;42323;52.170;7.538;2023-02-17T06:29:58;101209.78;;;9.75;88.40
56420;BME280;42323;52.170;7.538;2023-02-17T06:32:30;101217.97;;;9.72;88.13
56420;BME280;42323;52.170;7.538;2023-02-17T06:34:56;101217.97;;;9.72;88.44
56420;BME280;42323;52.170;7.538;2023-02-17T06:37:23;101212.41;;;9.75;88.42
56420;BME280;42323;52.170;7.538;2023-02-17T06:39:50;101212.91;;;9.78;88.96
56420;BME280;42323;52.170;7.538;2023-02-17T06:42:16;101192.78;;;9.79;89.23
56420;BME280;42323;52.170;7.538;2023-02-17T06:44:43;101207.47;;;9.64;89.90
56420;BME280;42323;52.170;7.538;2023-02-17T06:47:09;101199.59;;;9.64;90.67
56420;BME280;42323;52.170;7.538;2023-02-17T06:49:36;101201.72;;;9.60;91.56
56420;BME280;42323;52.170;7.538;2023-02-17T06:52:05;101214.03;;;9.68;91.52
56420;BME280;42323;52.170;7.538;2023-02-17T06:54:33;101198.41;;;9.58;91.20
56420;BME280;42323;52.170;7.538;2023-02-17T06:57:00;101204.03;;;9.63;91.88
56420;BME280;42323;52.170;7.538;2023-02-17T06:59:26;101210.03;;;9.55;91.89
56420;BME280;42323;52.170;7.538;2023-02-17T07:01:53;101218.47;;;9.49;92.96
56420;BME280;42323;52.170;7.538;2023-02-17T07:04:20;101218.47;;;9.49;93.01
56420;BME280;42323;52.170;7.538;2023-02-17T07:06:46;101214.09;;;9.50;93.59
56420;BME280;42323;52.170;7.538;2023-02-17T07:09:12;101205.91;;;9.53;93.66
56420;BME280;42323;52.170;7.538;2023-02-17T07:11:39;101197.06;;;9.46;94.25
56420;BME280;42323;52.170;7.538;2023-02-17T07:14:07;101209.28;;;9.45;95.16
56420;BME280;42323;52.170;7.538;2023-02-17T07:16:33;101210.59;;;9.41;95.72
56420;BME280;42323;52.170;7.538;2023-02-17T07:19:00;101210.91;;;9.38;95.54
56420;BME280;42323;52.170;7.538;2023-02-17T07:21:26;101203.41;;;9.43;95.29
56420;BME280;42323;52.170;7.538;2023-02-17T07:23:53;101206.66;;;9.45;96.07
56420;BME280;42323;52.170;7.538;2023-02-17T07:26:19;101206.84;;;9.44;95.47
56420;BME280;42323;52.170;7.538;2023-02-17T07:28:46;101189.63;;;9.33;96.35
56420;BME280;42323;52.170;7.538;2023-02-17T07:31:14;101200.53;;;9.28;96.04
56420;BME280;42323;52.170;7.538;2023-02-17T07:33:42;101205.56;;;9.48;95.95
56420;BME280;42323;52.170;7.538;2023-02-17T07:36:12;101190.84;;;9.47;95.94
56420;BME280;42323;52.170;7.538;2023-02-17T07:38:40;101207.06;;;9.50;96.22
56420;BME280;42323;52.170;7.538;2023-02-17T07:41:18;101203.47;;;9.51;96.40
56420;BME280;42323;52.170;7.538;2023-02-17T07:43:46;101194.28;;;9.47;95.89
56420;BME280;42323;52.170;7.538;2023-02-17T07:46:14;101189.59;;;9.59;95.93
56420;BME280;42323;52.170;7.538;2023-02-17T07:48:40;101190.44;;;9.60;95.00
56420;BME280;42323;52.170;7.538;2023-02-17T07:51:09;101175.19;;;9.55;95.61
56420;BME280;42323;52.170;7.538;2023-02-17T07:53:37;101181.59;;;9.61;95.52
56420;BME280;42323;52.170;7.538;2023-02-17T07:56:04;101177.81;;;9.55;94.93
56420;BME280;42323;52.170;7.538;2023-02-17T07:58:32;101165.44;;;9.65;94.25
56420;BME280;42323;52.170;7.538;2023-02-17T08:01:14;101169.84;;;9.65;94.40
56420;BME280;42323;52.170;7.538;2023-02-17T08:03:41;101179.03;;;9.69;94.55
56420;BME280;42323;52.170;7.538;2023-02-17T08:06:10;101181.97;;;9.74;94.58
56420;BME280;42323;52.170;7.538;2023-02-17T08:08:36;101174.94;;;9.74;94.33
56420;BME280;42323;52.170;7.538;2023-02-17T08:11:21;101176.22;;;9.70;93.69
56420;BME280;42323;52.170;7.538;2023-02-17T08:14:09;101182.16;;;9.72;93.94
56420;BME280;42323;52.170;7.538;2023-02-17T08:16:38;101170.88;;;9.80;93.67
56420;BME280;42323;52.170;7.538;2023-02-17T08:19:04;101174.00;;;9.84;93.31
56420;BME280;42323;52.170;7.538;2023-02-17T08:21:33;101165.34;;;9.83;93.64
56420;BME280;42323;52.170;7.538;2023-02-17T08:23:59;101164.69;;;9.81;93.24
56420;BME280;42323;52.170;7.538;2023-02-17T08:26:26;101174.50;;;9.87;93.83
56420;BME280;42323;52.170;7.538;2023-02-17T08:28:52;101180.72;;;9.86;93.67
56420;BME280;42323;52.170;7.538;2023-02-17T08:31:27;101167.66;;;9.86;93.37
56420;BME280;42323;52.170;7.538;2023-02-17T08:33:55;101173.25;;;9.99;92.68
56420;BME280;42323;52.170;7.538;2023-02-17T08:36:22;101180.13;;;10.00;92.91
56420;BME280;42323;52.170;7.538;2023-02-17T08:38:52;101161.47;;;9.95;92.76
56420;BME280;42323;52.170;7.538;2023-02-17T08:41:30;101163.59;;;10.00;92.95
56420;BME280;42323;52.170;7.538;2023-02-17T08:43:59;101170.66;;;10.08;92.41
56420;BME280;42323;52.170;7.538;2023-02-17T08:46:27;101159.69;;;10.04;92.50
56420;BME280;42323;52.170;7.538;2023-02-17T08:48:54;101174.56;;;10.03;92.84
56420;BME280;42323;52.170;7.538;2023-02-17T08:51:23;101167.03;;;10.00;92.60
56420;BME280;42323;52.170;7.538;2023-02-17T08:53:53;101176.19;;;9.96;92.63
56420;BME280;42323;52.170;7.538;2023-02-17T08:56:21;101197.31;;;10.03;92.91
56420;BME280;42323;52.170;7.538;2023-02-17T08:58:48;101193.88;;;10.02;93.09
56420;BME280;42323;52.170;7.538;2023-02-17T09:01:15;101198.47;;;10.09;92.61
56420;BME280;42323;52.170;7.538;2023-02-17T09:03:45;101205.34;;;10.10;92.07
56420;BME280;42323;52.170;7.538;2023-02-17T09:06:12;101218.47;;;10.18;92.34
56420;BME280;42323;52.170;7.538;2023-02-17T09:08:38;101214.94;;;10.27;91.18
56420;BME280;42323;52.170;7.538;2023-02-17T09:11:07;101193.47;;;10.23;91.59
56420;BME280;42323;52.170;7.538;2023-02-17T09:13:35;101206.13;;;10.28;91.37
56420;BME280;42323;52.170;7.538;2023-02-17T09:16:02;101193.59;;;10.22;91.59
56420;BME280;42323;52.170;7.538;2023-02-17T09:18:29;101201.69;;;10.28;91.55
56420;BME280;42323;52.170;7.538;2023-02-17T09:20:55;101205.47;;;10.34;90.62
56420;BME280;42323;52.170;7.538;2023-02-17T09:23:23;101191.38;;;10.35;90.64
56420;BME280;42323;52.170;7.538;2023-02-17T09:25:59;101221.03;;;10.44;89.75
56420;BME280;42323;52.170;7.538;2023-02-17T09:28:26;101228.56;;;10.47;90.09
56420;BME280;42323;52.170;7.538;2023-02-17T09:30:52;101238.75;;;10.50;89.83
56420;BME280;42323;52.170;7.538;2023-02-17T09:33:19;101211.56;;;10.51;89.44
56420;BME280;42323;52.170;7.538;2023-02-17T09:35:46;101216.31;;;10.55;89.25
56420;BME280;42323;52.170;7.538;2023-02-17T09:38:15;101211.38;;;10.52;89.77
56420;BME280;42323;52.170;7.538;2023-02-17T09:40:47;101222.53;;;10.54;89.42
56420;BME280;42323;52.170;7.538;2023-02-17T09:43:16;101209.25;;;10.48;89.44
56420;BME280;42323;52.170;7.538;2023-02-17T09:45:49;101221.88;;;10.52;89.27
56420;BME280;42323;52.170;7.538;2023-02-17T09:48:21;101217.94;;;10.48;89.92
56420;BME280;42323;52.170;7.538;2023-02-17T09:51:21;101225.16;;;10.54;89.50
56420;BME280;42323;52.170;7.538;2023-02-17T09:56:23;101209.09;;;10.66;88.17
56420;BME280;42323;52.170;7.538;2023-02-17T09:58:52;101221.72;;;10.70;88.02
56420;BME280;42323;52.170;7.538;2023-02-17T10:01:25;101225.03;;;10.72;87.77
56420;BME280;42323;52.170;7.538;2023-02-17T10:04:23;101220.91;;;10.78;87.63
56420;BME280;42323;52.170;7.538;2023-02-17T10:07:07;101183.56;;;10.92;86.27
56420;BME280;42323;52.170;7.538;2023-02-17T10:09:39;101190.63;;;11.00;85.58
56420;BME280;42323;52.170;7.538;2023-02-17T10:12:20;101179.81;;;11.03;86.02
56420;BME280;42323;52.170;7.538;2023-02-17T10:14:58;101183.72;;;11.15;84.46
56420;BME280;42323;52.170;7.538;2023-02-17T10:17:47;101133.53;;;11.26;83.82
56420;BME280;42323;52.170;7.538;2023-02-17T10:22:46;101152.38;;;11.30;83.68
56420;BME280;42323;52.170;7.538;2023-02-17T10:25:18;101143.50;;;11.39;83.25
56420;BME280;42323;52.170;7.538;2023-02-17T10:27:59;101142.84;;;11.45;82.47
56420;BME280;42323;52.170;7.538;2023-02-17T10:30:57;101159.34;;;11.62;82.90
56420;BME280;42323;52.170;7.538;2023-02-17T10:33:36;101167.34;;;11.69;80.86
56420;BME280;42323;52.170;7.538;2023-02-17T10:38:44;101166.41;;;11.62;81.23
56420;BME280;42323;52.170;7.538;2023-02-17T10:41:14;101176.06;;;11.61;82.16
56420;BME280;42323;52.170;7.538;2023-02-17T10:43:43;101183.78;;;11.63;82.42
56420;BME280;42323;52.170;7.538;2023-02-17T10:46:13;101171.66;;;11.62;81.72
56420;BME280;42323;52.170;7.538;2023-02-17T10:48:47;101159.84;;;11.66;81.61
56420;BME280;42323;52.170;7.538;2023-02-17T10:51:19;101171.59;;;11.70;81.41
56420;BME280;42323;52.170;7.538;2023-02-17T10:53:51;101174.38;;;11.85;79.81
56420;BME280;42323;52.170;7.538;2023-02-17T10:56:23;101154.78;;;11.95;79.77
56420;BME280;42323;52.170;7.538;2023-02-17T10:58:54;101165.28;;;11.95;79.88
56420;BME280;42323;52.170;7.538;2023-02-17T11:01:23;101168.28;;;11.92;79.35
56420;BME280;42323;52.170;7.538;2023-02-17T11:04:05;101142.78;;;12.01;78.91
56420;BME280;42323;52.170;7.538;2023-02-17T11:06:36;101156.75;;;12.01;78.97
56420;BME280;42323;52.170;7.538;2023-02-17T11:09:17;101168.06;;;12.02;78.73
56420;BME280;42323;52.170;7.538;2023-02-17T11:12:12;101164.91;;;12.07;77.86
56420;BME280;42323;52.170;7.538;2023-02-17T11:14:44;101155.13;;;12.00;79.22
56420;BME280;42323;52.170;7.538;2023-02-17T11:17:17;101151.50;;;12.01;79.09
56420;BME280;42323;52.170;7.538;2023-02-17T11:23:23;101144.91;;;12.05;79.05
56420;BME280;42323;52.170;7.538;2023-02-17T11:26:08;101144.88;;;12.14;79.21
56420;BME280;42323;52.170;7.538;2023-02-17T11:28:34;101150.41;;;12.19;78.17
56420;BME280;42323;52.170;7.538;2023-02-17T11:31:01;101166.00;;;12.20;77.67
56420;BME280;42323;52.170;7.538;2023-02-17T11:33:35;101167.16;;;12.18;77.95
56420;BME280;42323;52.170;7.538;2023-02-17T11:36:04;101152.38;;;12.17;77.79
56420;BME280;42323;52.170;7.538;2023-02-17T11:38:41;101137.59;;;12.16;78.77
56420;BME280;42323;52.170;7.538;2023-02-17T11:41:08;101142.38;;;12.12;78.14
56420;BME280;42323;52.170;7.538;2023-02-17T11:43:37;101149.16;;;12.07;77.54
56420;BME280;42323;52.170;7.538;2023-02-17T11:46:21;101125.22;;;12.01;78.61
56420;BME280;42323;52.170;7.538;2023-02-17T11:57:42;101177.81;;;11.85;79.79
56420;BME280;42323;52.170;7.538;2023-02-17T12:00:19;101162.06;;;11.85;79.98
56420;BME280;42323;52.170;7.538;2023-02-17T12:08:22;101200.09;;;11.97;79.12
56420;BME280;42323;52.170;7.538;2023-02-17T12:11:35;101182.03;;;11.94;79.53
56420;BME280;42323;52.170;7.538;2023-02-17T12:22:17;101193.88;;;11.82;79.26
56420;BME280;42323;52.170;7.538;2023-02-17T12:30:41;101170.44;;;11.80;79.55
56420;BME280;42323;52.170;7.538;2023-02-17T12:36:27;101182.56;;;11.81;79.70
56420;BME280;42323;52.170;7.538;2023-02-17T12:44:25;101184.69;;;11.78;80.69
56420;BME280;42323;52.170;7.538;2023-02-17T12:47:01;101175.00;;;11.87;80.24
56420;BME280;42323;52.170;7.538;2023-02-17T12:49:41;101184.56;;;11.88;79.61
56420;BME280;42323;52.170;7.538;2023-02-17T12:52:16;101191.44;;;11.80;80.76
56420;BME280;42323;52.170;7.538;2023-02-17T13:02:35;101220.34;;;11.72;81.06
56420;BME280;42323;52.170;7.538;2023-02-17T13:05:03;101239.84;;;11.70;81.31
56420;BME280;42323;52.170;7.538;2023-02-17T13:07:42;101258.09;;;11.71;82.83
56420;BME280;42323;52.170;7.538;2023-02-17T13:10:19;101260.41;;;11.50;84.19
56420;BME280;42323;52.170;7.538;2023-02-17T13:13:02;101212.25;;;11.10;87.36
56420;BME280;42323;52.170;7.538;2023-02-17T13:15:40;101238.47;;;10.94;90.11
56420;BME280;42323;52.170;7.538;2023-02-17T13:18:35;101242.22;;;10.67;92.79
56420;BME280;42323;52.170;7.538;2023-02-17T13:23:44;101263.66;;;10.62;95.32
56420;BME280;42323;52.170;7.538;2023-02-17T13:31:24;101268.34;;;10.42;98.11
56420;BME280;42323;52.170;7.538;2023-02-17T13:33:56;101269.66;;;10.38;98.90
56420;BME280;42323;52.170;7.538;2023-02-17T13:53:34;101230.06;;;10.07;99.41
56420;BME280;42323;52.170;7.538;2023-02-17T13:58:41;101279.75;;;10.25;98.55
56420;BME280;42323;52.170;7.538;2023-02-17T14:06:39;101275.47;;;10.24;98.00
56420;BME280;42323;52.170;7.538;2023-02-17T14:11:53;101274.66;;;10.23;97.74
56420;BME280;42323;52.170;7.538;2023-02-17T14:14:23;101261.63;;;10.05;97.37
56420;BME280;42323;52.170;7.538;2023-02-17T14:17:05;101287.66;;;10.33;96.46
56420;BME280;42323;52.170;7.538;2023-02-17T14:19:45;101268.53;;;10.41;95.25
56420;BME280;42323;52.170;7.538;2023-02-17T14:22:28;101242.63;;;10.38;95.12
56420;BME280;42323;52.170;7.538;2023-02-17T14:24:59;101268.03;;;10.45;94.96
56420;BME280;42323;52.170;7.538;2023-02-17T14:27:26;101261.16;;;10.44;93.88
56420;BME280;42323;52.170;7.538;2023-02-17T14:29:52;101267.72;;;10.48;93.44
56420;BME280;42323;52.170;7.538;2023-02-17T14:32:33;101220.78;;;10.21;93.62
56420;BME280;42323;52.170;7.538;2023-02-17T14:43:10;101204.19;;;10.04;91.38
56420;BME280;42323;52.170;7.538;2023-02-17T14:49:08;101258.22;;;10.47;91.22
56420;BME280;42323;52.170;7.538;2023-02-17T14:51:36;101266.28;;;10.54;91.40
56420;BME280;42323;52.170;7.538;2023-02-17T14:54:13;101274.59;;;10.49;91.14
56420;BME280;42323;52.170;7.538;2023-02-17T14:56:45;101273.31;;;10.53;91.35
56420;BME280;42323;52.170;7.538;2023-02-17T15:02:54;101302.13;;;10.53;89.77
56420;BME280;42323;52.170;7.538;2023-02-17T15:05:21;101295.56;;;10.58;89.94
56420;BME280;42323;52.170;7.538;2023-02-17T15:07:47;101301.16;;;10.54;90.03
56420;BME280;42323;52.170;7.538;2023-02-17T15:10:26;101306.22;;;10.56;90.27
56420;BME280;42323;52.170;7.538;2023-02-17T15:12:54;101310.31;;;10.50;90.60
56420;BME280;42323;52.170;7.538;2023-02-17T15:15:21;101294.06;;;10.47;90.20
56420;BME280;42323;52.170;7.538;2023-02-17T15:17:48;101316.66;;;10.48;90.66
56420;BME280;42323;52.170;7.538;2023-02-17T15:20:15;101293.88;;;10.40;90.23
56420;BME280;42323;52.170;7.538;2023-02-17T15:22:42;101313.53;;;10.44;91.22
56420;BME280;42323;52.170;7.538;2023-02-17T15:25:13;101329.50;;;10.59;89.88
56420;BME280;42323;52.170;7.538;2023-02-17T15:27:41;101318.53;;;10.64;89.45
56420;BME280;42323;52.170;7.538;2023-02-17T15:30:13;101333.28;;;10.65;89.35
56420;BME280;42323;52.170;7.538;2023-02-17T15:32:41;101304.91;;;10.60;89.32
56420;BME280;42323;52.170;7.538;2023-02-17T15:35:21;101316.72;;;10.64;89.68
56420;BME280;42323;52.170;7.538;2023-02-17T15:37:48;101311.66;;;10.63;88.88